sensor_id;sensor_type;location;lat;lon;timestamp;temperature;humidity
23156;DHT22;11746;50.876;4.246;2023-02-28T00:01:15;2.40;99.90
23156;DHT22;11746;50.876;4.246;2023-02-28T00:03:41;2.30;99.90
23156;DHT22;11746;50.876;4.246;2023-02-28T00:06:08;2.30;99.90
23156;DHT22;11746;50.876;4.246;2023-02-28T00:08:35;2.20;99.90
23156;DHT22;11746;50.876;4.246;2023-02-28T00:11:03;2.20;99.90
23156;DHT22;11746;50.876;4.246;2023-02-28T00:13:30;2.20;99.90
23156;DHT22;11746;50.876;4.246;2023-02-28T00:16:05;2.10;99.90
23156;DHT22;11746;50.876;4.246;2023-02-28T00:18:31;2.10;99.90
23156;DHT22;11746;50.876;4.246;2023-02-28T00:20:57;2.10;99.90
23156;DHT22;11746;50.876;4.246;2023-02-28T00:23:24;2.00;99.90
23156;DHT22;11746;50.876;4.246;2023-02-28T00:25:50;2.10;99.90
23156;DHT22;11746;50.876;4.246;2023-02-28T00:28:17;2.00;99.90
23156;DHT22;11746;50.876;4.246;2023-02-28T00:30:43;2.00;99.90
23156;DHT22;11746;50.876;4.246;2023-02-28T00:33:10;2.00;99.90
23156;DHT22;11746;50.876;4.246;2023-02-28T00:35:36;1.90;99.90
23156;DHT22;11746;50.876;4.246;2023-02-28T00:38:02;1.90;99.90
23156;DHT22;11746;50.876;4.246;2023-02-28T00:40:28;1.90;99.90
23156;DHT22;11746;50.876;4.246;2023-02-28T00:42:54;1.90;99.90
23156;DHT22;11746;50.876;4.246;2023-02-28T00:45:20;1.90;99.90
23156;DHT22;11746;50.876;4.246;2023-02-28T00:47:46;1.80;99.90
23156;DHT22;11746;50.876;4.246;2023-02-28T00:50:18;1.70;99.90
23156;DHT22;11746;50.876;4.246;2023-02-28T00:52:45;1.80;99.90
23156;DHT22;11746;50.876;4.246;2023-02-28T00:55:12;1.80;99.90
23156;DHT22;11746;50.876;4.246;2023-02-28T00:57:38;1.80;99.90
23156;DHT22;11746;50.876;4.246;2023-02-28T01:00:04;1.70;99.90
23156;DHT22;11746;50.876;4.246;2023-02-28T01:02:31;1.70;99.90
23156;DHT22;11746;50.876;4.246;2023-02-28T01:04:56;1.80;99.90
23156;DHT22;11746;50.876;4.246;2023-02-28T01:07:23;1.80;99.90
23156;DHT22;11746;50.876;4.246;2023-02-28T01:09:49;1.80;99.90
23156;DHT22;11746;50.876;4.246;2023-02-28T01:12:15;1.90;99.90
23156;DHT22;11746;50.876;4.246;2023-02-28T01:14:41;1.90;99.90
23156;DHT22;11746;50.876;4.246;2023-02-28T01:17:07;2.00;99.90
23156;DHT22;11746;50.876;4.246;2023-02-28T01:19:33;2.10;99.90
23156;DHT22;11746;50.876;4.246;2023-02-28T01:22:04;2.10;99.90
23156;DHT22;11746;50.876;4.246;2023-02-28T01:24:31;2.10;99.90
23156;DHT22;11746;50.876;4.246;2023-02-28T01:26:57;2.10;99.90
23156;DHT22;11746;50.876;4.246;2023-02-28T01:29:23;2.20;99.90
23156;DHT22;11746;50.876;4.246;2023-02-28T01:31:49;2.20;99.90
23156;DHT22;11746;50.876;4.246;2023-02-28T01:34:15;2.20;99.90
23156;DHT22;11746;50.876;4.246;2023-02-28T01:36:40;2.20;99.90
23156;DHT22;11746;50.876;4.246;2023-02-28T01:39:06;2.10;99.90
23156;DHT22;11746;50.876;4.246;2023-02-28T01:41:34;2.00;99.90
23156;DHT22;11746;50.876;4.246;2023-02-28T01:44:06;2.10;99.90
23156;DHT22;11746;50.876;4.246;2023-02-28T01:46:34;2.10;99.90
23156;DHT22;11746;50.876;4.246;2023-02-28T01:49:08;2.00;99.90
23156;DHT22;11746;50.876;4.246;2023-02-28T01:51:42;1.80;99.90
23156;DHT22;11746;50.876;4.246;2023-02-28T01:54:22;1.80;99.90
23156;DHT22;11746;50.876;4.246;2023-02-28T01:57:17;1.80;99.90
23156;DHT22;11746;50.876;4.246;2023-02-28T01:59:54;1.80;99.90
23156;DHT22;11746;50.876;4.246;2023-02-28T02:02:24;1.70;99.90
23156;DHT22;11746;50.876;4.246;2023-02-28T02:05:09;1.80;99.90
23156;DHT22;11746;50.876;4.246;2023-02-28T02:07:37;1.80;99.90
23156;DHT22;11746;50.876;4.246;2023-02-28T02:10:17;1.60;99.90
23156;DHT22;11746;50.876;4.246;2023-02-28T02:21:13;1.70;99.90
23156;DHT22;11746;50.876;4.246;2023-02-28T02:35:20;1.60;99.90
23156;DHT22;11746;50.876;4.246;2023-02-28T02:40:30;1.60;99.90
23156;DHT22;11746;50.876;4.246;2023-02-28T02:47:54;1.70;99.90
23156;DHT22;11746;50.876;4.246;2023-02-28T02:50:31;1.60;99.90
23156;DHT22;11746;50.876;4.246;2023-02-28T02:53:01;1.70;99.90
23156;DHT22;11746;50.876;4.246;2023-02-28T02:55:28;1.70;99.90
23156;DHT22;11746;50.876;4.246;2023-02-28T02:57:59;1.70;99.90
23156;DHT22;11746;50.876;4.246;2023-02-28T03:00:49;1.70;99.90
23156;DHT22;11746;50.876;4.246;2023-02-28T03:03:17;1.70;99.90
23156;DHT22;11746;50.876;4.246;2023-02-28T03:05:48;1.70;99.90
23156;DHT22;11746;50.876;4.246;2023-02-28T03:08:15;1.70;99.90
23156;DHT22;11746;50.876;4.246;2023-02-28T03:10:43;1.60;99.90
23156;DHT22;11746;50.876;4.246;2023-02-28T03:24:57;1.50;99.90
23156;DHT22;11746;50.876;4.246;2023-02-28T03:27:49;1.50;99.90
23156;DHT22;11746;50.876;4.246;2023-02-28T03:31:18;1.50;99.90
23156;DHT22;11746;50.876;4.246;2023-02-28T03:33:37;1.50;99.90
23156;DHT22;11746;50.876;4.246;2023-02-28T03:36:17;1.40;99.90
23156;DHT22;11746;50.876;4.246;2023-02-28T03:39:05;1.50;99.90
23156;DHT22;11746;50.876;4.246;2023-02-28T03:41:49;1.60;99.90
23156;DHT22;11746;50.876;4.246;2023-02-28T03:44:21;1.60;99.90
23156;DHT22;11746;50.876;4.246;2023-02-28T03:47:03;1.50;99.90
23156;DHT22;11746;50.876;4.246;2023-02-28T03:49:36;1.50;99.90
23156;DHT22;11746;50.876;4.246;2023-02-28T03:52:09;1.60;99.90
23156;DHT22;11746;50.876;4.246;2023-02-28T03:54:42;1.50;99.90
23156;DHT22;11746;50.876;4.246;2023-02-28T03:57:18;1.50;99.90
23156;DHT22;11746;50.876;4.246;2023-02-28T03:59:55;1.50;99.90
23156;DHT22;11746;50.876;4.246;2023-02-28T04:02:22;1.40;99.90
23156;DHT22;11746;50.876;4.246;2023-02-28T04:04:48;1.30;99.90
23156;DHT22;11746;50.876;4.246;2023-02-28T04:07:15;1.40;99.90
23156;DHT22;11746;50.876;4.246;2023-02-28T04:09:41;1.40;99.90
23156;DHT22;11746;50.876;4.246;2023-02-28T04:12:07;1.30;99.90
23156;DHT22;11746;50.876;4.246;2023-02-28T04:14:33;1.30;99.90
23156;DHT22;11746;50.876;4.246;2023-02-28T04:16:59;1.30;99.90
23156;DHT22;11746;50.876;4.246;2023-02-28T04:19:25;1.30;99.90
23156;DHT22;11746;50.876;4.246;2023-02-28T04:21:52;1.30;99.90
23156;DHT22;11746;50.876;4.246;2023-02-28T04:24:21;1.20;99.90
23156;DHT22;11746;50.876;4.246;2023-02-28T04:26:50;1.30;99.90
23156;DHT22;11746;50.876;4.246;2023-02-28T04:29:23;1.40;99.90
23156;DHT22;11746;50.876;4.246;2023-02-28T04:31:49;1.40;99.90
23156;DHT22;11746;50.876;4.246;2023-02-28T04:34:16;1.40;99.90
23156;DHT22;11746;50.876;4.246;2023-02-28T04:36:42;1.40;99.90
23156;DHT22;11746;50.876;4.246;2023-02-28T04:39:08;1.50;99.90
23156;DHT22;11746;50.876;4.246;2023-02-28T04:41:35;1.50;99.90
23156;DHT22;11746;50.876;4.246;2023-02-28T04:44:01;1.50;99.90
23156;DHT22;11746;50.876;4.246;2023-02-28T04:46:27;1.40;99.90
23156;DHT22;11746;50.876;4.246;2023-02-28T04:48:53;1.40;99.90
23156;DHT22;11746;50.876;4.246;2023-02-28T04:51:20;1.40;99.90
23156;DHT22;11746;50.876;4.246;2023-02-28T04:53:46;1.30;99.90
23156;DHT22;11746;50.876;4.246;2023-02-28T04:56:14;1.30;99.90
23156;DHT22;11746;50.876;4.246;2023-02-28T04:58:41;1.40;99.90
23156;DHT22;11746;50.876;4.246;2023-02-28T05:01:23;1.40;99.90
23156;DHT22;11746;50.876;4.246;2023-02-28T05:03:50;1.40;99.90
23156;DHT22;11746;50.876;4.246;2023-02-28T05:06:17;1.30;99.90
23156;DHT22;11746;50.876;4.246;2023-02-28T05:08:44;1.30;99.90
23156;DHT22;11746;50.876;4.246;2023-02-28T05:11:20;1.30;99.90
23156;DHT22;11746;50.876;4.246;2023-02-28T05:13:47;1.20;99.90
23156;DHT22;11746;50.876;4.246;2023-02-28T05:16:14;1.30;99.90
23156;DHT22;11746;50.876;4.246;2023-02-28T05:18:40;1.50;99.90
23156;DHT22;11746;50.876;4.246;2023-02-28T05:21:12;1.50;99.90
23156;DHT22;11746;50.876;4.246;2023-02-28T05:23:45;1.50;99.90
23156;DHT22;11746;50.876;4.246;2023-02-28T05:26:11;1.60;99.90
23156;DHT22;11746;50.876;4.246;2023-02-28T05:28:37;1.60;99.90
23156;DHT22;11746;50.876;4.246;2023-02-28T05:31:03;1.70;99.90
23156;DHT22;11746;50.876;4.246;2023-02-28T05:33:28;1.80;99.90
23156;DHT22;11746;50.876;4.246;2023-02-28T05:35:54;1.80;99.90
23156;DHT22;11746;50.876;4.246;2023-02-28T05:38:21;1.80;99.90
23156;DHT22;11746;50.876;4.246;2023-02-28T05:40:47;1.90;99.90
23156;DHT22;11746;50.876;4.246;2023-02-28T05:43:12;1.90;99.90
23156;DHT22;11746;50.876;4.246;2023-02-28T05:45:39;1.90;99.90
23156;DHT22;11746;50.876;4.246;2023-02-28T05:48:05;1.90;99.90
23156;DHT22;11746;50.876;4.246;2023-02-28T05:50:31;1.80;99.90
23156;DHT22;11746;50.876;4.246;2023-02-28T05:52:56;1.90;99.90
23156;DHT22;11746;50.876;4.246;2023-02-28T05:55:22;1.90;99.90
23156;DHT22;11746;50.876;4.246;2023-02-28T05:57:48;2.10;99.90
23156;DHT22;11746;50.876;4.246;2023-02-28T06:00:14;2.10;99.90
23156;DHT22;11746;50.876;4.246;2023-02-28T06:02:41;2.00;99.90
23156;DHT22;11746;50.876;4.246;2023-02-28T06:05:14;2.00;99.90
23156;DHT22;11746;50.876;4.246;2023-02-28T06:07:40;2.00;99.90
23156;DHT22;11746;50.876;4.246;2023-02-28T06:10:06;2.00;99.90
23156;DHT22;11746;50.876;4.246;2023-02-28T06:12:32;2.00;99.90
23156;DHT22;11746;50.876;4.246;2023-02-28T06:14:58;2.10;99.90
23156;DHT22;11746;50.876;4.246;2023-02-28T06:17:24;2.10;99.90
23156;DHT22;11746;50.876;4.246;2023-02-28T06:19:50;2.00;99.90
23156;DHT22;11746;50.876;4.246;2023-02-28T06:22:16;1.90;99.90
23156;DHT22;11746;50.876;4.246;2023-02-28T06:24:42;1.90;99.90
23156;DHT22;11746;50.876;4.246;2023-02-28T06:27:08;1.90;99.90
23156;DHT22;11746;50.876;4.246;2023-02-28T06:29:34;1.90;99.90
23156;DHT22;11746;50.876;4.246;2023-02-28T06:32:00;2.00;99.90
23156;DHT22;11746;50.876;4.246;2023-02-28T06:34:27;2.00;99.90
23156;DHT22;11746;50.876;4.246;2023-02-28T06:36:55;2.00;99.90
23156;DHT22;11746;50.876;4.246;2023-02-28T06:39:21;1.90;99.90
23156;DHT22;11746;50.876;4.246;2023-02-28T06:41:47;1.90;99.90
23156;DHT22;11746;50.876;4.246;2023-02-28T06:44:15;1.80;99.90
23156;DHT22;11746;50.876;4.246;2023-02-28T06:46:42;1.80;99.90
23156;DHT22;11746;50.876;4.246;2023-02-28T06:49:09;1.90;99.90
23156;DHT22;11746;50.876;4.246;2023-02-28T06:51:37;1.80;99.90
23156;DHT22;11746;50.876;4.246;2023-02-28T06:54:03;1.90;99.90
23156;DHT22;11746;50.876;4.246;2023-02-28T06:56:30;2.00;99.90
23156;DHT22;11746;50.876;4.246;2023-02-28T06:58:55;1.90;99.90
23156;DHT22;11746;50.876;4.246;2023-02-28T07:01:23;2.00;99.90
23156;DHT22;11746;50.876;4.246;2023-02-28T07:03:50;2.00;99.90
23156;DHT22;11746;50.876;4.246;2023-02-28T07:06:27;2.00;99.90
23156;DHT22;11746;50.876;4.246;2023-02-28T07:08:53;2.10;99.90
23156;DHT22;11746;50.876;4.246;2023-02-28T07:11:21;2.10;99.90
23156;DHT22;11746;50.876;4.246;2023-02-28T07:13:49;2.10;99.90
23156;DHT22;11746;50.876;4.246;2023-02-28T07:16:16;2.10;99.90
23156;DHT22;11746;50.876;4.246;2023-02-28T07:18:42;2.20;99.90
23156;DHT22;11746;50.876;4.246;2023-02-28T07:21:09;2.30;99.90
23156;DHT22;11746;50.876;4.246;2023-02-28T07:23:35;2.20;99.90
23156;DHT22;11746;50.876;4.246;2023-02-28T07:26:04;2.20;99.90
23156;DHT22;11746;50.876;4.246;2023-02-28T07:28:31;2.20;99.90
23156;DHT22;11746;50.876;4.246;2023-02-28T07:30:57;2.30;99.90
23156;DHT22;11746;50.876;4.246;2023-02-28T07:33:23;2.30;99.90
23156;DHT22;11746;50.876;4.246;2023-02-28T07:35:49;2.30;99.90
23156;DHT22;11746;50.876;4.246;2023-02-28T07:38:15;2.30;99.90
23156;DHT22;11746;50.876;4.246;2023-02-28T07:40:41;2.40;99.90
23156;DHT22;11746;50.876;4.246;2023-02-28T07:43:07;2.30;99.90
23156;DHT22;11746;50.876;4.246;2023-02-28T07:45:33;2.40;99.90
23156;DHT22;11746;50.876;4.246;2023-02-28T07:48:00;2.30;99.90
23156;DHT22;11746;50.876;4.246;2023-02-28T07:50:28;2.30;99.90
23156;DHT22;11746;50.876;4.246;2023-02-28T07:53:00;2.30;99.90
23156;DHT22;11746;50.876;4.246;2023-02-28T07:55:26;2.40;99.90
23156;DHT22;11746;50.876;4.246;2023-02-28T07:57:52;2.40;99.90
23156;DHT22;11746;50.876;4.246;2023-02-28T08:00:18;2.50;99.90
23156;DHT22;11746;50.876;4.246;2023-02-28T08:02:44;2.60;99.90
23156;DHT22;11746;50.876;4.246;2023-02-28T08:05:10;2.60;99.90
23156;DHT22;11746;50.876;4.246;2023-02-28T08:07:36;2.70;99.90
23156;DHT22;11746;50.876;4.246;2023-02-28T08:10:03;2.80;99.90
23156;DHT22;11746;50.876;4.246;2023-02-28T08:12:31;2.80;99.90
23156;DHT22;11746;50.876;4.246;2023-02-28T08:14:57;3.00;99.90
23156;DHT22;11746;50.876;4.246;2023-02-28T08:17:23;3.20;99.90
23156;DHT22;11746;50.876;4.246;2023-02-28T08:19:49;3.20;99.90
23156;DHT22;11746;50.876;4.246;2023-02-28T08:22:14;3.30;99.90
23156;DHT22;11746;50.876;4.246;2023-02-28T08:24:43;3.50;99.90
23156;DHT22;11746;50.876;4.246;2023-02-28T08:27:10;3.50;99.90
23156;DHT22;11746;50.876;4.246;2023-02-28T08:29:38;3.70;99.90
23156;DHT22;11746;50.876;4.246;2023-02-28T08:32:05;3.80;99.90
23156;DHT22;11746;50.876;4.246;2023-02-28T08:34:31;3.80;99.90
23156;DHT22;11746;50.876;4.246;2023-02-28T08:37:00;3.90;99.90
23156;DHT22;11746;50.876;4.246;2023-02-28T08:39:25;3.80;99.90
23156;DHT22;11746;50.876;4.246;2023-02-28T08:41:56;3.80;99.90
23156;DHT22;11746;50.876;4.246;2023-02-28T08:44:21;3.90;99.90
23156;DHT22;11746;50.876;4.246;2023-02-28T08:46:49;4.10;99.90
23156;DHT22;11746;50.876;4.246;2023-02-28T08:49:15;4.20;99.90
23156;DHT22;11746;50.876;4.246;2023-02-28T08:51:41;4.40;99.90
23156;DHT22;11746;50.876;4.246;2023-02-28T08:54:08;4.40;99.90
23156;DHT22;11746;50.876;4.246;2023-02-28T08:56:34;4.40;99.90
23156;DHT22;11746;50.876;4.246;2023-02-28T08:59:00;4.40;99.90
23156;DHT22;11746;50.876;4.246;2023-02-28T09:01:28;4.50;99.90
23156;DHT22;11746;50.876;4.246;2023-02-28T09:03:57;4.60;99.90
23156;DHT22;11746;50.876;4.246;2023-02-28T09:06:25;4.50;99.90
23156;DHT22;11746;50.876;4.246;2023-02-28T09:08:52;4.60;99.90
23156;DHT22;11746;50.876;4.246;2023-02-28T09:11:22;4.70;99.90
23156;DHT22;11746;50.876;4.246;2023-02-28T09:13:48;4.80;99.90
23156;DHT22;11746;50.876;4.246;2023-02-28T09:16:15;4.80;99.90
23156;DHT22;11746;50.876;4.246;2023-02-28T09:18:42;4.70;99.90
23156;DHT22;11746;50.876;4.246;2023-02-28T09:21:12;4.70;99.90
23156;DHT22;11746;50.876;4.246;2023-02-28T09:23:41;4.70;99.90
23156;DHT22;11746;50.876;4.246;2023-02-28T09:26:07;4.50;99.90
23156;DHT22;11746;50.876;4.246;2023-02-28T09:28:34;4.40;99.90
23156;DHT22;11746;50.876;4.246;2023-02-28T09:31:00;4.40;99.90
23156;DHT22;11746;50.876;4.246;2023-02-28T09:33:27;4.60;99.90
23156;DHT22;11746;50.876;4.246;2023-02-28T09:36:00;4.70;99.90
23156;DHT22;11746;50.876;4.246;2023-02-28T09:38:26;4.70;99.90
23156;DHT22;11746;50.876;4.246;2023-02-28T09:40:57;4.60;99.90
23156;DHT22;11746;50.876;4.246;2023-02-28T09:43:29;4.70;99.90
23156;DHT22;11746;50.876;4.246;2023-02-28T09:46:08;4.60;99.90
23156;DHT22;11746;50.876;4.246;2023-02-28T09:48:41;4.60;99.90
23156;DHT22;11746;50.876;4.246;2023-02-28T09:53:56;4.60;99.90
23156;DHT22;11746;50.876;4.246;2023-02-28T09:56:25;4.60;99.90
23156;DHT22;11746;50.876;4.246;2023-02-28T09:59:01;4.70;99.90
23156;DHT22;11746;50.876;4.246;2023-02-28T10:01:39;4.80;99.90
23156;DHT22;11746;50.876;4.246;2023-02-28T10:07:10;5.20;99.40
23156;DHT22;11746;50.876;4.246;2023-02-28T10:09:46;5.40;99.30
23156;DHT22;11746;50.876;4.246;2023-02-28T10:12:15;5.30;99.20
23156;DHT22;11746;50.876;4.246;2023-02-28T10:14:46;5.40;98.40
23156;DHT22;11746;50.876;4.246;2023-02-28T10:17:26;5.40;97.50
23156;DHT22;11746;50.876;4.246;2023-02-28T10:20:00;5.50;97.70
23156;DHT22;11746;50.876;4.246;2023-02-28T10:22:34;5.60;97.90
23156;DHT22;11746;50.876;4.246;2023-02-28T10:25:05;5.50;97.10
23156;DHT22;11746;50.876;4.246;2023-02-28T10:27:37;5.30;96.30
23156;DHT22;11746;50.876;4.246;2023-02-28T10:30:03;5.30;95.90
23156;DHT22;11746;50.876;4.246;2023-02-28T10:32:34;5.10;96.40
23156;DHT22;11746;50.876;4.246;2023-02-28T10:35:14;5.30;96.30
23156;DHT22;11746;50.876;4.246;2023-02-28T10:37:42;5.20;96.50
23156;DHT22;11746;50.876;4.246;2023-02-28T10:40:30;5.40;96.50
23156;DHT22;11746;50.876;4.246;2023-02-28T10:45:24;5.50;93.50
23156;DHT22;11746;50.876;4.246;2023-02-28T10:53:22;5.40;92.10
23156;DHT22;11746;50.876;4.246;2023-02-28T10:58:28;5.30;91.20
23156;DHT22;11746;50.876;4.246;2023-02-28T11:00:54;5.30;87.40
23156;DHT22;11746;50.876;4.246;2023-02-28T11:03:30;5.30;90.00
23156;DHT22;11746;50.876;4.246;2023-02-28T11:05:57;5.50;89.90
23156;DHT22;11746;50.876;4.246;2023-02-28T11:08:23;5.50;90.20
23156;DHT22;11746;50.876;4.246;2023-02-28T11:11:03;5.50;86.50
23156;DHT22;11746;50.876;4.246;2023-02-28T11:13:33;5.60;88.80
23156;DHT22;11746;50.876;4.246;2023-02-28T11:16:04;5.70;84.90
23156;DHT22;11746;50.876;4.246;2023-02-28T11:18:38;5.70;85.20
23156;DHT22;11746;50.876;4.246;2023-02-28T11:21:06;5.60;84.60
23156;DHT22;11746;50.876;4.246;2023-02-28T11:23:36;5.90;86.60
23156;DHT22;11746;50.876;4.246;2023-02-28T11:26:03;6.00;86.50
23156;DHT22;11746;50.876;4.246;2023-02-28T11:28:39;6.10;84.60
23156;DHT22;11746;50.876;4.246;2023-02-28T11:33:42;6.20;84.10
23156;DHT22;11746;50.876;4.246;2023-02-28T11:36:17;6.10;83.10
23156;DHT22;11746;50.876;4.246;2023-02-28T11:38:44;6.10;84.00
23156;DHT22;11746;50.876;4.246;2023-02-28T11:51:48;6.70;82.20
23156;DHT22;11746;50.876;4.246;2023-02-28T11:54:33;6.70;84.80
23156;DHT22;11746;50.876;4.246;2023-02-28T12:03:14;6.60;78.80
23156;DHT22;11746;50.876;4.246;2023-02-28T12:05:47;6.60;80.60
23156;DHT22;11746;50.876;4.246;2023-02-28T12:11:14;6.70;78.90
23156;DHT22;11746;50.876;4.246;2023-02-28T12:14:05;6.80;77.90
23156;DHT22;11746;50.876;4.246;2023-02-28T12:16:44;6.90;78.90
23156;DHT22;11746;50.876;4.246;2023-02-28T12:27:42;7.40;75.30
23156;DHT22;11746;50.876;4.246;2023-02-28T12:30:17;7.30;75.70
23156;DHT22;11746;50.876;4.246;2023-02-28T12:32:54;7.40;79.20
23156;DHT22;11746;50.876;4.246;2023-02-28T12:40:54;7.60;76.00
23156;DHT22;11746;50.876;4.246;2023-02-28T12:43:27;7.60;73.70
23156;DHT22;11746;50.876;4.246;2023-02-28T12:46:10;7.70;74.50
23156;DHT22;11746;50.876;4.246;2023-02-28T12:48:43;7.90;74.90
23156;DHT22;11746;50.876;4.246;2023-02-28T12:51:12;8.00;75.60
23156;DHT22;11746;50.876;4.246;2023-02-28T12:53:47;7.90;73.30
23156;DHT22;11746;50.876;4.246;2023-02-28T12:58:54;8.20;74.20
23156;DHT22;11746;50.876;4.246;2023-02-28T13:01:42;8.20;72.60
23156;DHT22;11746;50.876;4.246;2023-02-28T13:05:14;8.10;72.20
23156;DHT22;11746;50.876;4.246;2023-02-28T13:10:21;7.90;71.50
23156;DHT22;11746;50.876;4.246;2023-02-28T13:12:52;8.50;71.30
23156;DHT22;11746;50.876;4.246;2023-02-28T13:15:26;9.00;67.80
23156;DHT22;11746;50.876;4.246;2023-02-28T13:17:56;9.20;67.10
23156;DHT22;11746;50.876;4.246;2023-02-28T13:20:33;9.10;67.60
23156;DHT22;11746;50.876;4.246;2023-02-28T13:23:00;9.00;67.40
23156;DHT22;11746;50.876;4.246;2023-02-28T13:28:08;9.30;65.60
23156;DHT22;11746;50.876;4.246;2023-02-28T13:33:31;9.20;64.20
23156;DHT22;11746;50.876;4.246;2023-02-28T13:38:38;9.30;64.00
23156;DHT22;11746;50.876;4.246;2023-02-28T13:46:31;9.70;61.50
23156;DHT22;11746;50.876;4.246;2023-02-28T14:07:55;11.30;56.70
23156;DHT22;11746;50.876;4.246;2023-02-28T14:10:51;11.40;57.50
23156;DHT22;11746;50.876;4.246;2023-02-28T14:16:06;12.90;55.00
23156;DHT22;11746;50.876;4.246;2023-02-28T14:18:37;13.40;54.60
23156;DHT22;11746;50.876;4.246;2023-02-28T14:29:26;14.50;50.90
23156;DHT22;11746;50.876;4.246;2023-02-28T14:37:44;15.00;50.00
23156;DHT22;11746;50.876;4.246;2023-02-28T14:40:33;15.40;48.30
23156;DHT22;11746;50.876;4.246;2023-02-28T14:43:04;15.30;47.80
23156;DHT22;11746;50.876;4.246;2023-02-28T14:45:32;15.40;47.60
23156;DHT22;11746;50.876;4.246;2023-02-28T14:47:58;16.00;46.90
23156;DHT22;11746;50.876;4.246;2023-02-28T14:50:33;15.50;46.50
23156;DHT22;11746;50.876;4.246;2023-02-28T14:52:59;16.00;46.00
23156;DHT22;11746;50.876;4.246;2023-02-28T14:55:33;16.40;46.10
23156;DHT22;11746;50.876;4.246;2023-02-28T14:58:04;16.40;44.60
23156;DHT22;11746;50.876;4.246;2023-02-28T15:00:36;16.30;45.30
23156;DHT22;11746;50.876;4.246;2023-02-28T15:03:25;16.30;44.60
23156;DHT22;11746;50.876;4.246;2023-02-28T15:06:02;16.10;44.90
23156;DHT22;11746;50.876;4.246;2023-02-28T15:08:28;15.70;45.80
23156;DHT22;11746;50.876;4.246;2023-02-28T15:11:29;16.00;44.70
23156;DHT22;11746;50.876;4.246;2023-02-28T15:13:57;16.20;44.50
23156;DHT22;11746;50.876;4.246;2023-02-28T15:16:34;17.10;43.80
23156;DHT22;11746;50.876;4.246;2023-02-28T15:22:02;17.30;43.70
23156;DHT22;11746;50.876;4.246;2023-02-28T15:24:45;17.00;43.40
23156;DHT22;11746;50.876;4.246;2023-02-28T15:27:25;16.70;43.20
23156;DHT22;11746;50.876;4.246;2023-02-28T15:29:56;16.50;43.70
23156;DHT22;11746;50.876;4.246;2023-02-28T15:32:26;17.20;43.60
23156;DHT22;11746;50.876;4.246;2023-02-28T15:34:53;17.50;42.90
23156;DHT22;11746;50.876;4.246;2023-02-28T15:37:40;17.00;42.20
23156;DHT22;11746;50.876;4.246;2023-02-28T15:46:05;16.30;43.50
23156;DHT22;11746;50.876;4.246;2023-02-28T15:48:42;15.90;44.30
23156;DHT22;11746;50.876;4.246;2023-02-28T15:51:16;16.70;43.80
23156;DHT22;11746;50.876;4.246;2023-02-28T15:54:02;16.90;43.70
23156;DHT22;11746;50.876;4.246;2023-02-28T15:56:32;16.00;43.70
23156;DHT22;11746;50.876;4.246;2023-02-28T15:59:02;15.40;44.40
23156;DHT22;11746;50.876;4.246;2023-02-28T16:01:34;15.30;44.70
23156;DHT22;11746;50.876;4.246;2023-02-28T16:04:06;15.80;44.40
23156;DHT22;11746;50.876;4.246;2023-02-28T16:06:40;16.50;43.60
23156;DHT22;11746;50.876;4.246;2023-02-28T16:09:13;16.20;43.80
23156;DHT22;11746;50.876;4.246;2023-02-28T16:11:46;15.70;44.50
23156;DHT22;11746;50.876;4.246;2023-02-28T16:14:21;15.50;44.50
23156;DHT22;11746;50.876;4.246;2023-02-28T16:16:56;15.20;45.00
23156;DHT22;11746;50.876;4.246;2023-02-28T16:19:23;14.90;45.50
23156;DHT22;11746;50.876;4.246;2023-02-28T16:21:49;14.70;45.50
23156;DHT22;11746;50.876;4.246;2023-02-28T16:24:15;14.70;45.80
23156;DHT22;11746;50.876;4.246;2023-02-28T16:26:44;14.20;45.70
23156;DHT22;11746;50.876;4.246;2023-02-28T16:29:18;13.40;45.80
23156;DHT22;11746;50.876;4.246;2023-02-28T16:31:46;12.40;47.30
23156;DHT22;11746;50.876;4.246;2023-02-28T16:34:12;11.40;48.80
23156;DHT22;11746;50.876;4.246;2023-02-28T16:36:38;10.00;50.20
23156;DHT22;11746;50.876;4.246;2023-02-28T16:39:04;9.20;51.80
23156;DHT22;11746;50.876;4.246;2023-02-28T16:41:30;8.60;53.00
23156;DHT22;11746;50.876;4.246;2023-02-28T16:43:59;8.30;54.50
23156;DHT22;11746;50.876;4.246;2023-02-28T16:46:34;7.90;55.00
23156;DHT22;11746;50.876;4.246;2023-02-28T16:49:00;7.70;55.70
23156;DHT22;11746;50.876;4.246;2023-02-28T16:51:26;7.40;56.20
23156;DHT22;11746;50.876;4.246;2023-02-28T16:53:52;7.30;56.60
23156;DHT22;11746;50.876;4.246;2023-02-28T16:56:23;7.10;57.00
23156;DHT22;11746;50.876;4.246;2023-02-28T16:58:50;6.80;57.70
23156;DHT22;11746;50.876;4.246;2023-02-28T17:01:17;6.70;58.10
23156;DHT22;11746;50.876;4.246;2023-02-28T17:03:48;6.50;58.70
23156;DHT22;11746;50.876;4.246;2023-02-28T17:06:26;6.50;59.00
23156;DHT22;11746;50.876;4.246;2023-02-28T17:08:53;6.50;59.60
23156;DHT22;11746;50.876;4.246;2023-02-28T17:11:19;6.40;59.60
23156;DHT22;11746;50.876;4.246;2023-02-28T17:13:46;6.40;60.70
23156;DHT22;11746;50.876;4.246;2023-02-28T17:16:23;6.40;61.10
23156;DHT22;11746;50.876;4.246;2023-02-28T17:18:51;6.30;62.70
23156;DHT22;11746;50.876;4.246;2023-02-28T17:21:18;6.20;63.60
23156;DHT22;11746;50.876;4.246;2023-02-28T17:23:44;6.10;63.70
23156;DHT22;11746;50.876;4.246;2023-02-28T17:26:13;6.10;64.30
23156;DHT22;11746;50.876;4.246;2023-02-28T17:28:39;6.00;65.40
23156;DHT22;11746;50.876;4.246;2023-02-28T17:31:05;6.00;65.60
23156;DHT22;11746;50.876;4.246;2023-02-28T17:33:31;6.00;66.40
23156;DHT22;11746;50.876;4.246;2023-02-28T17:35:57;6.00;66.20
23156;DHT22;11746;50.876;4.246;2023-02-28T17:38:23;5.90;67.10
23156;DHT22;11746;50.876;4.246;2023-02-28T17:40:49;5.90;68.20
23156;DHT22;11746;50.876;4.246;2023-02-28T17:43:15;5.90;71.10
23156;DHT22;11746;50.876;4.246;2023-02-28T17:45:41;5.90;70.50
23156;DHT22;11746;50.876;4.246;2023-02-28T17:48:10;5.90;73.30
23156;DHT22;11746;50.876;4.246;2023-02-28T17:50:36;5.80;73.80
23156;DHT22;11746;50.876;4.246;2023-02-28T17:53:02;5.70;75.50
23156;DHT22;11746;50.876;4.246;2023-02-28T17:55:28;5.70;75.20
23156;DHT22;11746;50.876;4.246;2023-02-28T17:57:54;5.60;78.40
23156;DHT22;11746;50.876;4.246;2023-02-28T18:00:20;5.60;77.00
23156;DHT22;11746;50.876;4.246;2023-02-28T18:02:49;5.50;76.80
23156;DHT22;11746;50.876;4.246;2023-02-28T18:05:15;5.60;76.40
23156;DHT22;11746;50.876;4.246;2023-02-28T18:07:41;5.60;77.20
23156;DHT22;11746;50.876;4.246;2023-02-28T18:10:16;5.50;79.30
23156;DHT22;11746;50.876;4.246;2023-02-28T18:12:49;5.60;80.30
23156;DHT22;11746;50.876;4.246;2023-02-28T18:15:17;5.50;81.70
23156;DHT22;11746;50.876;4.246;2023-02-28T18:17:46;5.50;82.60
23156;DHT22;11746;50.876;4.246;2023-02-28T18:20:12;5.40;84.20
23156;DHT22;11746;50.876;4.246;2023-02-28T18:22:39;5.40;85.60
23156;DHT22;11746;50.876;4.246;2023-02-28T18:25:07;5.30;87.30
23156;DHT22;11746;50.876;4.246;2023-02-28T18:27:35;5.10;89.60
23156;DHT22;11746;50.876;4.246;2023-02-28T18:30:02;5.10;89.20
23156;DHT22;11746;50.876;4.246;2023-02-28T18:32:29;5.10;88.20
23156;DHT22;11746;50.876;4.246;2023-02-28T18:34:55;5.10;89.40
23156;DHT22;11746;50.876;4.246;2023-02-28T18:37:21;5.00;89.20